Time;durP1;ratioP1;P1;durP2;ratioP2;P2;SDS_P1;SDS_P2;PMS_P1;PMS_P2;Temp;Humidity;BMP_temperature;BMP_pressure;BME280_temperature;BME280_humidity;BME280_pressure;Samples;Min_cycle;Max_cycle;Signal;HPM_P1;HPM_P2
2023/08/13 00:02:22;;;;;;;1.88;1.08;;;20.40;97.40;;;;;;4985551;28;20111;-80
2023/08/13 00:04:48;;;;;;;3.28;1.00;;;20.30;97.50;;;;;;4988323;28;20029;-80
2023/08/13 00:07:14;;;;;;;2.28;0.98;;;20.30;97.50;;;;;;4988784;28;20026;-81
2023/08/13 00:09:43;;;;;;;2.20;1.07;;;20.20;97.60;;;;;;5006267;28;20227;-80
2023/08/13 00:12:09;;;;;;;1.90;0.90;;;20.20;97.50;;;;;;5007665;28;20049;-80
2023/08/13 00:14:35;;;;;;;1.48;0.90;;;20.10;97.70;;;;;;5007198;28;20040;-81
2023/08/13 00:17:01;;;;;;;2.60;0.90;;;20.10;97.80;;;;;;4988660;28;20041;-81
2023/08/13 00:19:27;;;;;;;2.55;1.00;;;20.10;97.80;;;;;;5001488;28;20026;-81
2023/08/13 00:21:53;;;;;;;2.55;1.10;;;20.10;97.90;;;;;;5001436;28;20017;-81
2023/08/13 00:24:19;;;;;;;3.03;1.10;;;20.00;97.80;;;;;;4995728;28;20018;-84
2023/08/13 00:26:45;;;;;;;1.63;0.90;;;20.00;97.90;;;;;;5010188;28;20397;-84
2023/08/13 00:29:11;;;;;;;1.92;0.90;;;20.00;97.90;;;;;;5019577;28;20017;-83
2023/08/13 00:31:37;;;;;;;2.05;1.00;;;20.00;98.00;;;;;;5012960;28;20434;-84
2023/08/13 00:34:03;;;;;;;2.40;1.00;;;20.00;98.00;;;;;;5011099;28;20499;-83
2023/08/13 00:36:29;;;;;;;3.67;1.10;;;19.90;98.00;;;;;;5018396;28;20025;-83
2023/08/13 00:38:54;;;;;;;2.92;1.15;;;19.90;98.00;;;;;;5033419;28;20014;-84
2023/08/13 00:41:20;;;;;;;3.13;1.00;;;19.90;98.10;;;;;;5012052;28;20013;-83
2023/08/13 00:43:46;;;;;;;3.45;1.23;;;19.90;98.20;;;;;;5047091;28;20018;-83
2023/08/13 00:46:13;;;;;;;1.70;0.98;;;19.90;98.20;;;;;;5015282;28;20079;-82
2023/08/13 00:48:40;;;;;;;4.68;1.15;;;19.80;98.30;;;;;;5026727;28;20049;-83
2023/08/13 00:51:09;;;;;;;2.30;0.90;;;19.80;98.30;;;;;;5049458;28;20022;-84
2023/08/13 00:53:43;;;;;;;3.72;0.90;;;19.80;98.40;;;;;;5032673;28;20021;-84
2023/08/13 00:56:09;;;;;;;3.65;1.00;;;19.80;98.20;;;;;;5042208;28;20057;-83
2023/08/13 00:58:35;;;;;;;2.50;0.88;;;19.80;98.40;;;;;;5015257;28;20018;-84
2023/08/13 01:01:01;;;;;;;1.63;1.10;;;19.80;98.50;;;;;;5031185;28;20040;-83
2023/08/13 01:03:27;;;;;;;1.70;0.90;;;19.80;98.50;;;;;;5029516;28;20033;-83
2023/08/13 01:06:10;;;;;;;1.98;1.20;;;19.80;98.50;;;;;;5040719;28;20033;-83
2023/08/13 01:09:14;;;;;;;3.25;1.23;;;19.80;97.90;;;;;;5044533;28;20028;-83
2023/08/13 01:12:18;;;;;;;1.33;0.77;;;19.80;97.90;;;;;;5016798;28;20040;-82
2023/08/13 01:14:47;;;;;;;2.38;1.00;;;19.70;98.20;;;;;;5038286;28;20080;-83
2023/08/13 01:17:17;;;;;;;2.95;1.08;;;19.70;98.40;;;;;;5016693;28;20063;-83
2023/08/13 01:19:42;;;;;;;1.73;0.85;;;19.70;98.70;;;;;;5009508;28;20030;-82
2023/08/13 01:22:09;;;;;;;2.10;1.00;;;19.70;98.80;;;;;;5011045;28;20480;-84
2023/08/13 01:24:35;;;;;;;2.63;1.00;;;19.70;98.90;;;;;;5008907;28;20038;-83
2023/08/13 01:27:23;;;;;;;2.72;1.08;;;19.60;98.90;;;;;;4998448;28;20057;-83
2023/08/13 01:29:55;;;;;;;1.73;1.00;;;19.70;98.20;;;;;;5008034;28;20072;-83
2023/08/13 01:32:31;;;;;;;2.47;0.98;;;19.70;98.80;;;;;;4991511;28;20025;-83
2023/08/13 01:34:58;;;;;;;2.83;0.97;;;19.60;98.70;;;;;;5014602;28;20037;-87
2023/08/13 01:37:25;;;;;;;3.10;1.20;;;19.70;99.00;;;;;;5002967;28;20438;-87
2023/08/13 01:39:51;;;;;;;2.00;0.90;;;19.70;98.90;;;;;;5000681;28;20018;-88
2023/08/13 01:42:18;;;;;;;2.88;1.08;;;19.60;98.90;;;;;;4987017;28;20384;-87
2023/08/13 01:44:43;;;;;;;2.22;1.00;;;19.60;98.80;;;;;;4991966;28;20022;-86
2023/08/13 01:47:09;;;;;;;3.53;1.10;;;19.60;98.80;;;;;;5006096;28;20033;-85
2023/08/13 01:49:35;;;;;;;2.47;1.10;;;19.50;98.80;;;;;;4987254;28;20061;-87
2023/08/13 01:52:01;;;;;;;2.80;1.07;;;19.50;98.80;;;;;;4996707;28;20057;-88
2023/08/13 01:54:26;;;;;;;2.25;1.08;;;19.40;98.70;;;;;;5005615;28;20053;-88
2023/08/13 01:56:52;;;;;;;2.30;1.00;;;19.40;98.70;;;;;;4988169;28;20550;-87
2023/08/13 01:59:18;;;;;;;4.25;1.10;;;19.30;98.60;;;;;;4987179;28;20084;-87
2023/08/13 02:01:44;;;;;;;3.10;1.00;;;19.30;98.60;;;;;;4983953;28;20352;-85
2023/08/13 02:04:09;;;;;;;2.03;1.00;;;19.20;98.70;;;;;;5020673;28;20367;-88
2023/08/13 02:06:36;;;;;;;1.90;1.10;;;19.20;98.70;;;;;;5002317;28;20041;-84
2023/08/13 02:09:02;;;;;;;1.90;0.90;;;19.10;98.80;;;;;;4991035;28;20034;-86
2023/08/13 02:11:28;;;;;;;2.03;1.07;;;19.00;98.80;;;;;;5014925;28;20029;-87
2023/08/13 02:13:54;;;;;;;1.98;1.00;;;19.00;98.80;;;;;;5020271;28;20036;-88
2023/08/13 02:16:20;;;;;;;1.83;0.90;;;19.00;98.90;;;;;;4993548;28;20030;-88
2023/08/13 02:18:46;;;;;;;1.92;1.00;;;18.90;98.90;;;;;;4988297;28;20026;-84
2023/08/13 02:21:12;;;;;;;2.37;1.07;;;18.90;99.00;;;;;;5006157;28;20071;-88
2023/08/13 02:23:37;;;;;;;1.98;1.00;;;18.80;99.00;;;;;;5002767;28;20042;-87
2023/08/13 02:26:03;;;;;;;3.33;1.03;;;18.80;99.00;;;;;;4989365;28;20026;-88
2023/08/13 02:28:29;;;;;;;3.22;1.02;;;18.80;99.00;;;;;;4992950;28;20026;-86
2023/08/13 02:30:55;;;;;;;2.63;0.90;;;18.80;99.00;;;;;;4982420;28;20398;-87
2023/08/13 02:33:20;;;;;;;1.77;1.17;;;18.70;99.10;;;;;;5006334;28;20100;-86
2023/08/13 02:35:46;;;;;;;2.60;0.93;;;18.70;99.10;;;;;;5020292;28;20037;-87
2023/08/13 02:38:12;;;;;;;2.20;1.00;;;18.70;99.10;;;;;;5007537;28;20430;-88
2023/08/13 02:40:37;;;;;;;1.97;0.90;;;18.60;99.10;;;;;;4996271;28;20049;-87
2023/08/13 02:43:03;;;;;;;1.42;0.98;;;18.60;99.20;;;;;;5009050;28;20348;-86
2023/08/13 02:45:29;;;;;;;2.58;1.20;;;18.50;99.20;;;;;;5011425;28;20029;-80
2023/08/13 02:47:56;;;;;;;1.90;1.10;;;18.50;99.30;;;;;;5023303;28;20057;-81
2023/08/13 02:50:22;;;;;;;2.13;1.02;;;18.50;99.30;;;;;;5013696;28;20022;-81
2023/08/13 02:52:48;;;;;;;2.35;1.10;;;18.50;99.30;;;;;;5003289;28;20582;-81
2023/08/13 02:55:16;;;;;;;1.70;0.93;;;18.40;99.40;;;;;;5003484;28;20030;-81
2023/08/13 02:57:42;;;;;;;2.50;1.10;;;18.40;99.40;;;;;;4999724;28;20392;-83
2023/08/13 03:00:08;;;;;;;2.43;1.20;;;18.30;99.40;;;;;;5003277;28;20045;-80
2023/08/13 03:02:34;;;;;;;3.33;1.00;;;18.30;99.40;;;;;;4991076;28;20041;-81
2023/08/13 03:05:01;;;;;;;2.50;1.02;;;18.30;99.40;;;;;;4992724;28;20346;-80
2023/08/13 03:07:27;;;;;;;2.58;0.95;;;18.30;99.40;;;;;;5001847;28;20375;-80
2023/08/13 03:09:53;;;;;;;1.90;1.10;;;18.80;99.90;;;;;;5001596;28;20034;-81
2023/08/13 03:12:18;;;;;;;0.93;0.80;;;18.20;99.80;;;;;;4985457;28;20033;-80
2023/08/13 03:14:45;;;;;;;2.80;1.10;;;18.20;99.50;;;;;;5007481;28;20033;-81
2023/08/13 03:17:10;;;;;;;1.67;1.00;;;18.20;99.60;;;;;;5003246;28;20049;-81
2023/08/13 03:19:36;;;;;;;2.33;1.25;;;18.20;99.70;;;;;;4988020;28;20018;-81
2023/08/13 03:22:02;;;;;;;3.13;1.30;;;18.20;99.70;;;;;;5008059;28;20035;-81
2023/08/13 03:24:28;;;;;;;2.00;1.10;;;18.20;99.60;;;;;;4994701;28;20052;-81
2023/08/13 03:26:53;;;;;;;2.15;1.13;;;18.20;99.60;;;;;;4989233;28;20093;-81
2023/08/13 03:29:19;;;;;;;2.70;1.30;;;18.20;99.70;;;;;;4991013;28;20582;-81
2023/08/13 03:31:45;;;;;;;4.78;1.52;;;18.10;99.60;;;;;;4986361;28;20132;-80
2023/08/13 03:34:10;;;;;;;1.87;1.10;;;18.10;99.60;;;;;;5001898;28;20374;-82
2023/08/13 03:36:37;;;;;;;2.25;1.10;;;18.10;99.70;;;;;;5002422;28;20323;-82
2023/08/13 03:39:03;;;;;;;2.37;1.23;;;18.00;99.70;;;;;;5000318;28;20408;-80
2023/08/13 03:41:29;;;;;;;2.10;1.10;;;18.00;99.70;;;;;;5017731;28;20411;-83
2023/08/13 03:43:54;;;;;;;2.05;1.30;;;18.00;99.80;;;;;;5008884;28;20022;-80
2023/08/13 03:46:20;;;;;;;2.47;1.07;;;18.00;99.90;;;;;;4989234;28;20030;-81
2023/08/13 03:48:46;;;;;;;3.65;1.00;;;18.00;99.90;;;;;;5005030;28;20112;-81
2023/08/13 03:51:11;;;;;;;1.17;1.00;;;17.90;99.90;;;;;;5007637;28;20491;-81
2023/08/13 03:53:37;;;;;;;2.30;1.10;;;17.90;99.90;;;;;;4992900;28;20065;-80
2023/08/13 03:56:07;;;;;;;2.77;1.13;;;17.90;99.90;;;;;;5010530;28;20058;-84
2023/08/13 03:58:34;;;;;;;3.10;1.15;;;17.90;99.90;;;;;;5019124;28;20116;-82
2023/08/13 04:01:05;;;;;;;1.48;1.00;;;17.90;99.90;;;;;;4989881;28;20112;-83
2023/08/13 04:03:31;;;;;;;1.70;1.08;;;17.90;99.90;;;;;;5008070;28;20294;-83
2023/08/13 04:05:56;;;;;;;2.03;1.10;;;17.90;99.90;;;;;;5006331;28;20399;-84
2023/08/13 04:08:22;;;;;;;2.37;1.10;;;17.90;99.90;;;;;;5001836;28;20192;-84
2023/08/13 04:10:49;;;;;;;3.03;1.23;;;18.00;99.90;;;;;;4992095;28;20459;-83
2023/08/13 04:13:15;;;;;;;1.50;1.07;;;17.90;99.90;;;;;;4998356;28;20292;-85
2023/08/13 04:15:41;;;;;;;1.95;1.00;;;17.90;99.90;;;;;;4986148;28;20034;-84
2023/08/13 04:18:06;;;;;;;1.53;1.00;;;18.00;99.90;;;;;;4999708;28;20061;-84
2023/08/13 04:20:34;;;;;;;2.88;1.20;;;18.00;99.90;;;;;;4988455;28;20038;-84
2023/08/13 04:23:00;;;;;;;1.77;1.10;;;18.00;99.90;;;;;;5001987;28;20281;-83
2023/08/13 04:25:26;;;;;;;2.10;1.10;;;18.00;99.90;;;;;;4991479;28;20100;-83
2023/08/13 04:27:52;;;;;;;1.65;1.00;;;18.00;99.90;;;;;;4982959;28;20699;-84
2023/08/13 04:30:17;;;;;;;2.92;1.00;;;18.00;99.90;;;;;;4989692;28;20546;-84
2023/08/13 04:32:53;;;;;;;2.10;1.10;;;18.00;99.90;;;;;;5004188;28;20498;-83
2023/08/13 04:35:20;;;;;;;1.73;1.13;;;18.00;99.90;;;;;;4992289;28;20399;-84
2023/08/13 04:37:45;;;;;;;1.55;1.00;;;18.00;99.90;;;;;;5020175;28;20025;-84
2023/08/13 04:40:11;;;;;;;2.70;1.17;;;17.90;99.90;;;;;;4989309;28;20021;-84
2023/08/13 04:42:37;;;;;;;2.42;1.20;;;17.90;99.90;;;;;;5001781;28;20026;-84
2023/08/13 04:45:03;;;;;;;2.87;1.20;;;17.90;99.90;;;;;;5001048;28;20362;-83
2023/08/13 04:47:29;;;;;;;2.90;1.30;;;17.90;99.90;;;;;;5001891;28;20033;-83
2023/08/13 04:49:54;;;;;;;2.15;1.13;;;17.90;99.90;;;;;;5005607;28;20036;-84
2023/08/13 04:52:20;;;;;;;2.57;1.10;;;17.90;99.90;;;;;;4987746;28;20032;-84
2023/08/13 04:54:47;;;;;;;1.95;1.10;;;17.90;99.90;;;;;;4992435;28;21652;-83
2023/08/13 04:57:13;;;;;;;1.60;1.00;;;17.90;99.90;;;;;;5008187;28;20045;-84
2023/08/13 04:59:39;;;;;;;1.80;0.90;;;17.90;99.90;;;;;;4989383;28;20513;-83
2023/08/13 05:02:05;;;;;;;1.67;1.00;;;17.90;99.90;;;;;;4985726;28;20033;-83
2023/08/13 05:04:30;;;;;;;1.87;1.00;;;17.90;99.90;;;;;;5003058;28;20112;-80
2023/08/13 05:06:56;;;;;;;1.90;1.10;;;17.90;99.90;;;;;;4989353;28;20037;-80
2023/08/13 05:09:22;;;;;;;2.20;1.13;;;17.90;99.90;;;;;;4985935;28;20528;-82
2023/08/13 05:11:48;;;;;;;1.77;1.10;;;17.90;99.90;;;;;;5004388;28;20049;-79
2023/08/13 05:14:14;;;;;;;2.30;1.13;;;;;;;;;;5009748;28;20049;-81
2023/08/13 05:16:39;;;;;;;2.15;1.10;;;17.90;99.90;;;;;;5020419;28;20045;-81
2023/08/13 05:19:08;;;;;;;2.05;1.10;;;17.90;99.90;;;;;;5000688;28;20021;-80
2023/08/13 05:21:34;;;;;;;2.83;1.20;;;18.00;99.90;;;;;;5009491;28;20445;-80
2023/08/13 05:23:59;;;;;;;2.67;1.10;;;18.00;99.90;;;;;;5002310;28;20022;-79
2023/08/13 05:26:25;;;;;;;2.07;1.20;;;18.10;99.90;;;;;;4981386;28;20026;-80
2023/08/13 05:28:51;;;;;;;2.23;1.27;;;18.10;99.90;;;;;;5027006;28;20330;-81
2023/08/13 05:31:17;;;;;;;4.07;1.10;;;18.20;99.90;;;;;;5002312;28;20538;-81
2023/08/13 05:33:42;;;;;;;2.17;1.07;;;18.20;99.90;;;;;;5004076;28;20379;-80
2023/08/13 05:36:08;;;;;;;2.78;1.40;;;18.30;99.90;;;;;;5009518;28;20128;-79
2023/08/13 05:38:34;;;;;;;1.48;0.80;;;18.30;99.90;;;;;;4988733;28;20286;-80
2023/08/13 05:41:00;;;;;;;2.23;1.10;;;18.30;99.90;;;;;;4990323;28;20017;-80
2023/08/13 05:43:25;;;;;;;2.25;1.20;;;18.30;99.90;;;;;;5006907;28;20255;-81
2023/08/13 05:45:51;;;;;;;1.83;1.00;;;18.40;99.90;;;;;;4985090;28;20021;-81
2023/08/13 05:48:17;;;;;;;1.58;1.25;;;18.40;99.90;;;;;;4992320;28;20378;-82
2023/08/13 05:50:43;;;;;;;2.07;1.10;;;18.50;99.90;;;;;;4989751;28;20140;-80
2023/08/13 05:53:08;;;;;;;1.63;1.17;;;18.50;99.90;;;;;;4991491;28;20094;-81
2023/08/13 05:55:34;;;;;;;1.47;1.20;;;18.50;99.90;;;;;;5004549;28;20026;-80
2023/08/13 05:58:00;;;;;;;2.15;1.10;;;18.60;99.90;;;;;;4999618;28;20485;-81
2023/08/13 06:00:27;;;;;;;2.53;1.27;;;18.60;99.90;;;;;;5006693;28;21421;-80
2023/08/13 06:02:52;;;;;;;1.40;0.87;;;18.70;99.90;;;;;;5011127;28;20511;-81
2023/08/13 06:05:18;;;;;;;1.55;1.00;;;18.80;99.90;;;;;;5002989;28;20634;-82
2023/08/13 06:07:44;;;;;;;2.55;1.17;;;18.80;99.90;;;;;;5009014;28;20384;-80
2023/08/13 06:10:10;;;;;;;1.67;1.10;;;18.90;99.90;;;;;;4991873;28;20032;-81
2023/08/13 06:12:35;;;;;;;2.15;1.10;;;19.00;99.90;;;;;;5004039;28;20045;-81
2023/08/13 06:15:01;;;;;;;3.30;1.20;;;19.10;99.90;;;;;;5005155;28;20100;-81
2023/08/13 06:17:27;;;;;;;3.50;1.20;;;19.20;99.90;;;;;;5000502;28;20030;-80
2023/08/13 06:19:53;;;;;;;1.93;1.20;;;19.20;99.90;;;;;;5018110;28;20029;-80
2023/08/13 06:22:19;;;;;;;1.73;1.05;;;19.30;99.90;;;;;;5005721;28;20128;-81
2023/08/13 06:24:45;;;;;;;2.28;1.20;;;19.40;99.90;;;;;;5005412;28;20030;-80
2023/08/13 06:27:11;;;;;;;2.47;1.10;;;19.40;99.90;;;;;;5002595;28;20075;-81
2023/08/13 06:29:37;;;;;;;3.63;1.17;;;19.50;99.90;;;;;;5004902;28;20030;-83
2023/08/13 06:32:03;;;;;;;3.72;1.10;;;19.50;99.90;;;;;;4995514;28;20454;-80
2023/08/13 06:34:29;;;;;;;2.27;1.10;;;19.60;99.90;;;;;;5011444;28;20402;-83
2023/08/13 06:36:54;;;;;;;1.48;1.00;;;19.60;99.90;;;;;;4996466;28;20037;-80
2023/08/13 06:39:24;;;;;;;2.13;1.20;;;19.70;99.90;;;;;;5004671;28;20574;-80
2023/08/13 06:41:52;;;;;;;2.97;1.23;;;19.70;99.90;;;;;;5015826;28;20476;-80
2023/08/13 06:44:20;;;;;;;2.97;1.30;;;19.80;99.90;;;;;;5002966;28;20036;-80
2023/08/13 06:46:48;;;;;;;3.75;1.20;;;19.80;99.90;;;;;;4991015;28;20226;-80
2023/08/13 06:49:15;;;;;;;3.38;1.02;;;19.90;99.90;;;;;;5026305;28;20061;-80
2023/08/13 06:51:41;;;;;;;3.40;1.10;;;19.90;99.90;;;;;;5003157;28;20045;-82
2023/08/13 06:54:07;;;;;;;2.35;1.17;;;19.90;99.90;;;;;;5006005;28;20025;-80
2023/08/13 06:56:35;;;;;;;2.53;1.08;;;19.90;99.90;;;;;;5004211;28;20129;-79
2023/08/13 06:59:02;;;;;;;3.30;1.10;;;18.00;99.90;;;;;;5023049;28;20080;-82
2023/08/13 07:01:28;;;;;;;2.80;1.40;;;20.00;99.90;;;;;;4990200;28;20037;-83
2023/08/13 07:03:53;;;;;;;2.50;1.07;;;20.00;99.90;;;;;;4998492;28;20030;-78
2023/08/13 07:06:19;;;;;;;3.10;1.20;;;20.10;99.90;;;;;;5008229;28;20076;-80
2023/08/13 07:08:45;;;;;;;2.20;1.03;;;20.20;99.90;;;;;;4999275;28;20045;-78
2023/08/13 07:11:10;;;;;;;3.75;1.10;;;20.20;99.90;;;;;;5005282;28;20034;-81
2023/08/13 07:13:36;;;;;;;3.90;1.30;;;20.20;99.90;;;;;;5020302;28;20509;-83
2023/08/13 07:16:02;;;;;;;2.55;1.10;;;20.30;99.90;;;;;;4984107;28;20486;-80
2023/08/13 07:18:28;;;;;;;2.85;1.17;;;20.30;99.90;;;;;;4988275;28;20032;-80
2023/08/13 07:20:54;;;;;;;2.07;1.13;;;20.30;99.90;;;;;;4979427;28;20021;-80
2023/08/13 07:23:20;;;;;;;2.35;1.30;;;20.40;99.90;;;;;;5000845;28;20068;-81
2023/08/13 07:25:46;;;;;;;3.28;1.20;;;20.50;99.90;;;;;;4994493;28;20096;-88
2023/08/13 07:28:11;;;;;;;2.40;1.10;;;20.50;99.90;;;;;;5015858;28;20034;-88
2023/08/13 07:30:38;;;;;;;4.32;1.30;;;20.60;99.90;;;;;;5004257;28;20045;-86
2023/08/13 07:33:04;;;;;;;3.72;1.20;;;20.60;99.90;;;;;;5022218;28;20026;-87
2023/08/13 07:35:31;;;;;;;2.42;1.20;;;20.70;99.90;;;;;;4994250;28;20104;-87
2023/08/13 07:37:57;;;;;;;3.83;1.17;;;20.70;99.90;;;;;;5005683;28;20409;-86
2023/08/13 07:40:22;;;;;;;2.75;1.17;;;20.80;99.90;;;;;;4999386;28;20030;-84
2023/08/13 07:42:48;;;;;;;3.13;1.20;;;20.80;99.90;;;;;;5002544;28;20050;-87
2023/08/13 07:45:14;;;;;;;3.63;1.10;;;20.90;99.90;;;;;;5005943;28;20041;-87
2023/08/13 07:47:40;;;;;;;2.30;1.20;;;20.90;99.90;;;;;;5019715;28;20051;-86
2023/08/13 07:50:07;;;;;;;1.37;1.20;;;21.00;99.90;;;;;;5004645;28;20089;-87
2023/08/13 07:52:34;;;;;;;2.90;1.10;;;21.10;99.90;;;;;;5000828;28;20350;-87
2023/08/13 07:55:00;;;;;;;3.25;1.30;;;21.10;99.90;;;;;;5003165;28;20041;-88
2023/08/13 07:57:26;;;;;;;3.40;1.23;;;21.20;99.90;;;;;;4986594;28;20390;-86
2023/08/13 07:59:52;;;;;;;2.53;1.20;;;21.20;99.90;;;;;;4985755;28;20021;-84
2023/08/13 08:02:18;;;;;;;2.00;1.10;;;21.30;99.90;;;;;;4976848;28;20105;-88
2023/08/13 08:04:45;;;;;;;2.45;1.10;;;21.40;99.90;;;;;;4981374;28;20254;-87
2023/08/13 08:07:11;;;;;;;2.80;1.17;;;21.40;99.90;;;;;;4974026;28;20073;-87
2023/08/13 08:09:36;;;;;;;2.83;1.25;;;21.50;99.90;;;;;;4995887;28;20033;-87
2023/08/13 08:12:02;;;;;;;4.55;1.30;;;21.60;99.90;;;;;;4992507;28;20042;-85
2023/08/13 08:14:28;;;;;;;3.13;1.20;;;21.70;99.90;;;;;;4980673;28;20081;-84
2023/08/13 08:16:59;;;;;;;2.90;1.10;;;21.80;99.90;;;;;;4973560;28;20777;-85
2023/08/13 08:19:25;;;;;;;3.97;1.25;;;21.80;99.90;;;;;;4993746;28;20036;-82
2023/08/13 08:21:51;;;;;;;4.53;1.30;;;21.90;99.90;;;;;;4983217;28;20266;-88
2023/08/13 08:24:17;;;;;;;3.88;1.20;;;22.00;99.90;;;;;;5008833;28;20113;-84
2023/08/13 08:26:42;;;;;;;1.50;1.03;;;22.00;99.90;;;;;;4994500;28;20223;-84
2023/08/13 08:29:08;;;;;;;3.67;1.20;;;22.10;99.90;;;;;;4982270;28;20044;-87
2023/08/13 08:31:34;;;;;;;2.40;1.02;;;22.20;99.90;;;;;;4977701;28;20030;-86
2023/08/13 08:34:04;;;;;;;1.73;1.13;;;22.20;99.90;;;;;;4999218;28;20072;-84
2023/08/13 08:36:29;;;;;;;3.08;1.08;;;22.10;99.90;;;;;;4974751;28;20687;-82
2023/08/13 08:38:55;;;;;;;3.00;1.13;;;22.20;99.90;;;;;;4994832;28;20244;-86
2023/08/13 08:41:22;;;;;;;2.60;1.10;;;22.50;99.90;;;;;;4989227;28;20033;-88
2023/08/13 08:43:49;;;;;;;2.63;1.20;;;22.70;99.90;;;;;;4974234;28;20026;-83
2023/08/13 08:46:16;;;;;;;2.50;1.10;;;22.80;99.90;;;;;;5000201;28;20037;-88
2023/08/13 08:48:42;;;;;;;2.30;1.17;;;22.90;99.90;;;;;;4986456;28;20045;-86
2023/08/13 08:51:08;;;;;;;3.20;1.30;;;23.00;99.90;;;;;;5004426;28;20045;-87
2023/08/13 08:53:34;;;;;;;3.05;1.20;;;23.20;99.90;;;;;;4976715;28;22037;-84
2023/08/13 08:56:00;;;;;;;2.80;1.38;;;23.30;99.90;;;;;;4983965;28;20455;-83
2023/08/13 08:58:27;;;;;;;3.03;1.40;;;23.50;99.90;;;;;;4990782;28;20052;-83
2023/08/13 09:00:59;;;;;;;4.00;1.35;;;23.60;99.90;;;;;;4998215;28;20310;-88
2023/08/13 09:03:29;;;;;;;3.07;1.40;;;23.70;99.90;;;;;;5015849;28;20339;-86
2023/08/13 09:05:55;;;;;;;3.25;1.30;;;23.90;99.90;;;;;;5002710;28;20026;-86
2023/08/13 09:08:21;;;;;;;2.38;1.10;;;24.10;99.90;;;;;;4998478;28;20025;-87
2023/08/13 09:10:47;;;;;;;3.65;1.55;;;24.30;99.90;;;;;;4998910;28;20056;-85
2023/08/13 09:13:13;;;;;;;4.33;1.30;;;24.50;99.90;;;;;;4996472;28;20048;-86
2023/08/13 09:15:48;;;;;;;2.97;1.30;;;24.70;99.90;;;;;;4981638;28;20041;-84
2023/08/13 09:18:14;;;;;;;4.20;1.50;;;24.90;99.90;;;;;;4995369;28;20410;-83
2023/08/13 09:20:44;;;;;;;3.90;1.40;;;25.30;99.90;;;;;;5015973;28;20361;-85
2023/08/13 09:23:10;;;;;;;3.80;1.50;;;25.50;99.90;;;;;;4997659;28;20033;-87
2023/08/13 09:25:37;;;;;;;4.32;1.50;;;25.80;99.90;;;;;;4992902;28;20575;-86
2023/08/13 09:28:03;;;;;;;3.22;1.23;;;26.00;99.90;;;;;;4994670;28;20585;-85
2023/08/13 09:30:31;;;;;;;2.45;1.60;;;26.20;99.90;;;;;;4977045;28;20122;-82
2023/08/13 09:33:00;;;;;;;2.08;1.50;;;26.40;99.90;;;;;;4992055;28;20745;-88
2023/08/13 09:35:27;;;;;;;4.03;1.43;;;26.60;99.90;;;;;;4986314;28;20028;-87
2023/08/13 09:37:53;;;;;;;3.22;1.40;;;26.80;99.90;;;;;;5003309;28;20040;-89
2023/08/13 09:40:19;;;;;;;2.95;1.48;;;26.90;99.90;;;;;;4961401;28;20112;-84
2023/08/13 09:42:46;;;;;;;2.20;1.40;;;27.00;99.90;;;;;;4991945;28;20118;-87
2023/08/13 09:45:15;;;;;;;4.30;1.60;;;27.10;99.90;;;;;;5015669;28;20111;-86
2023/08/13 09:47:44;;;;;;;3.10;1.13;;;27.20;99.90;;;;;;4997220;28;20490;-88
2023/08/13 09:50:12;;;;;;;2.65;1.20;;;27.30;99.90;;;;;;5015130;28;20030;-86
2023/08/13 09:52:42;;;;;;;3.17;1.15;;;27.30;99.90;;;;;;4989586;28;20033;-87
2023/08/13 09:55:13;;;;;;;1.90;1.20;;;27.50;99.90;;;;;;4994337;28;20064;-88
2023/08/13 09:57:41;;;;;;;3.08;1.58;;;27.60;99.90;;;;;;5002325;28;20351;-87
2023/08/13 10:00:09;;;;;;;2.95;1.30;;;27.80;99.90;;;;;;4989579;28;21013;-87
2023/08/13 10:02:37;;;;;;;3.20;1.50;;;28.10;99.90;;;;;;5007066;28;20109;-87
2023/08/13 10:05:04;;;;;;;2.75;1.50;;;28.40;99.90;;;;;;5002679;28;20037;-87
2023/08/13 10:07:31;;;;;;;2.30;1.40;;;28.80;99.90;;;;;;5000591;28;20027;-84
2023/08/13 10:09:58;;;;;;;2.78;1.40;;;29.30;99.90;;;;;;5000745;28;20017;-88
2023/08/13 10:12:26;;;;;;;3.28;1.50;;;29.70;99.90;;;;;;5003832;28;20053;-87
2023/08/13 10:14:51;;;;;;;3.85;1.50;;;30.20;99.90;;;;;;4987050;28;20453;-84
2023/08/13 10:17:18;;;;;;;3.28;1.70;;;30.60;99.90;;;;;;4986987;28;20042;-83
2023/08/13 10:19:51;;;;;;;2.63;1.70;;;30.80;99.90;;;;;;4991501;28;20041;-83
2023/08/13 10:22:44;;;;;;;4.07;1.90;;;31.20;99.90;;;;;;4979496;28;20126;-82
2023/08/13 10:25:34;;;;;;;3.38;1.80;;;31.40;99.90;;;;;;4964015;28;20045;-82
2023/08/13 10:28:18;;;;;;;3.33;1.90;;;31.70;99.70;;;;;;4999885;28;20035;-86
2023/08/13 10:30:45;;;;;;;2.80;1.50;;;31.90;99.90;;;;;;5000189;28;20037;-90
2023/08/13 10:33:11;;;;;;;2.97;1.40;;;31.80;99.90;;;;;;4987204;28;20040;-83
2023/08/13 10:35:39;;;;;;;3.15;1.48;;;31.70;99.20;;;;;;4984871;28;20079;-83
2023/08/13 10:38:07;;;;;;;3.10;1.23;;;31.40;98.60;;;;;;4980136;28;20022;-84
2023/08/13 10:40:34;;;;;;;3.63;1.50;;;31.00;98.60;;;;;;4984721;28;20037;-87
2023/08/13 10:43:00;;;;;;;3.20;1.53;;;30.70;98.50;;;;;;4982628;28;20040;-83
2023/08/13 10:45:29;;;;;;;2.83;1.52;;;30.40;98.70;;;;;;4996584;28;20021;-84
2023/08/13 10:48:03;;;;;;;3.75;1.48;;;30.10;99.40;;;;;;5003643;28;20043;-85
2023/08/13 10:50:42;;;;;;;1.95;1.15;;;29.90;98.10;;;;;;4992485;28;20113;-85
2023/08/13 10:53:10;;;;;;;3.05;1.40;;;29.80;99.90;;;;;;5004268;28;20140;-87
2023/08/13 10:55:40;;;;;;;3.57;1.40;;;29.70;99.80;;;;;;4999452;28;20431;-84
2023/08/13 10:58:07;;;;;;;2.45;1.40;;;29.50;99.90;;;;;;5006071;28;20025;-83
2023/08/13 11:00:43;;;;;;;4.50;1.52;;;29.40;99.70;;;;;;4974648;28;20054;-82
2023/08/13 11:03:15;;;;;;;4.30;1.52;;;29.20;97.90;;;;;;4978771;28;20033;-86
2023/08/13 11:05:43;;;;;;;5.68;1.40;;;29.10;98.60;;;;;;4992750;28;20564;-84
2023/08/13 11:08:10;;;;;;;3.60;1.60;;;29.00;99.80;;;;;;4994229;28;20033;-85
2023/08/13 11:10:37;;;;;;;3.10;1.60;;;28.90;99.90;;;;;;4989472;28;20052;-85
2023/08/13 11:13:05;;;;;;;3.42;1.42;;;28.80;99.90;;;;;;4958549;28;20041;-82
2023/08/13 11:15:30;;;;;;;5.22;1.60;;;28.70;99.90;;;;;;4976969;28;20490;-78
2023/08/13 11:17:56;;;;;;;3.43;1.43;;;28.70;99.90;;;;;;4978868;28;20072;-83
2023/08/13 11:20:23;;;;;;;3.15;1.48;;;28.70;99.90;;;;;;5000384;28;20220;-82
2023/08/13 11:22:49;;;;;;;3.28;1.40;;;28.60;99.90;;;;;;4992483;28;20812;-85
2023/08/13 11:25:15;;;;;;;4.50;1.83;;;28.60;99.90;;;;;;4964112;28;20218;-81
2023/08/13 11:27:41;;;;;;;7.82;2.50;;;28.50;99.90;;;;;;4971750;28;20621;-81
2023/08/13 11:30:08;;;;;;;8.23;2.20;;;28.50;99.90;;;;;;4963012;28;20497;-81
2023/08/13 11:32:38;;;;;;;3.90;1.58;;;28.60;99.90;;;;;;4991674;28;21375;-82
2023/08/13 11:35:09;;;;;;;2.88;1.50;;;28.80;99.90;;;;;;4980479;28;20089;-81
2023/08/13 11:37:38;;;;;;;2.47;1.50;;;29.00;99.90;;;;;;5002508;28;20026;-82
2023/08/13 11:40:10;;;;;;;4.35;1.58;;;29.20;99.90;;;;;;4957287;28;20017;-80
2023/08/13 11:42:51;;;;;;;3.70;1.60;;;29.40;99.90;;;;;;4986321;28;20781;-80
2023/08/13 11:45:17;;;;;;;2.33;1.45;;;29.50;99.90;;;;;;4971788;28;20045;-82
2023/08/13 11:47:43;;;;;;;4.17;1.73;;;29.70;99.90;;;;;;5000879;28;20531;-79
2023/08/13 11:50:19;;;;;;;2.55;1.40;;;29.90;99.90;;;;;;4976245;28;20038;-80
2023/08/13 11:53:03;;;;;;;2.47;1.40;;;30.00;99.30;;;;;;4984729;28;20390;-81
2023/08/13 11:55:30;;;;;;;2.70;1.38;;;30.00;98.30;;;;;;4993557;28;20084;-82
2023/08/13 11:57:57;;;;;;;3.63;1.10;;;29.90;99.90;;;;;;5003687;28;20396;-82
2023/08/13 12:00:26;;;;;;;3.13;1.30;;;29.80;99.40;;;;;;4982874;28;20446;-80
2023/08/13 12:02:56;;;;;;;3.10;1.55;;;29.90;99.90;;;;;;4981755;28;20862;-80
2023/08/13 12:05:27;;;;;;;3.22;1.50;;;29.80;99.90;;;;;;4967501;28;20471;-80
2023/08/13 12:07:55;;;;;;;2.28;1.63;;;30.00;99.90;;;;;;4994238;28;20538;-80
2023/08/13 12:10:21;;;;;;;2.00;1.60;;;30.20;99.90;;;;;;5001375;28;20088;-80
2023/08/13 12:12:47;;;;;;;2.78;1.58;;;30.60;99.90;;;;;;5013832;28;20049;-81
2023/08/13 12:15:12;;;;;;;4.18;1.90;;;30.70;99.90;;;;;;4991905;28;20029;-81
2023/08/13 12:17:39;;;;;;;2.88;1.83;;;31.00;99.90;;;;;;4984878;28;20442;-82
2023/08/13 12:20:06;;;;;;;3.93;1.60;;;31.20;99.90;;;;;;4997936;28;20049;-80
2023/08/13 12:22:32;;;;;;;2.88;1.63;;;31.40;99.90;;;;;;5012094;28;20092;-81
2023/08/13 12:24:58;;;;;;;3.15;1.65;;;31.60;99.90;;;;;;4997130;28;20087;-82
2023/08/13 12:27:24;;;;;;;2.43;1.63;;;31.60;99.90;;;;;;5012927;28;20025;-82
2023/08/13 12:29:50;;;;;;;3.08;1.70;;;31.70;99.90;;;;;;5009471;28;20030;-80
2023/08/13 12:32:16;;;;;;;3.00;1.70;;;32.00;99.90;;;;;;5002455;28;20461;-80
2023/08/13 12:34:42;;;;;;;2.73;1.67;;;32.20;99.90;;;;;;5000052;28;20026;-82
2023/08/13 12:37:07;;;;;;;3.55;1.60;;;32.30;99.90;;;;;;4991421;28;20573;-79
2023/08/13 12:39:33;;;;;;;3.37;1.90;;;32.40;99.50;;;;;;5010220;28;20694;-79
2023/08/13 12:41:59;;;;;;;1.98;1.48;;;32.30;98.10;;;;;;4992166;28;20903;-82
2023/08/13 12:44:25;;;;;;;3.13;1.33;;;32.10;97.30;;;;;;5002332;28;20531;-80
2023/08/13 12:46:51;;;;;;;2.17;1.30;;;31.80;97.50;;;;;;4980699;28;20273;-81
2023/08/13 12:49:16;;;;;;;3.60;1.50;;;31.60;97.20;;;;;;4992525;28;20519;-79